Time;durP1;ratioP1;P1;durP2;ratioP2;P2;SDS_P1;SDS_P2;PMS_P1;PMS_P2;Temp;Humidity;BMP_temperature;BMP_pressure;BME280_temperature;BME280_humidity;BME280_pressure;Samples;Min_cycle;Max_cycle;Signal;HPM_P1;HPM_P2
2021/12/31 00:00:32;;;;;;;3.57;2.63;;;;;;;;;;5073310;28;20459;-72
2021/12/31 00:02:59;;;;;;;4.80;3.57;;;;;;;;;;5073282;28;20460;-72
2021/12/31 00:05:26;;;;;;;5.03;2.70;;;;;;;;;;5072903;28;20496;-72
2021/12/31 00:07:53;;;;;;;3.70;2.90;;;;;;;;;;5073514;28;20447;-72
2021/12/31 00:10:20;;;;;;;5.33;3.50;;;;;;;;;;5073458;28;20944;-72
2021/12/31 00:12:48;;;;;;;6.50;3.67;;;;;;;;;;5073305;28;20452;-72
2021/12/31 00:15:16;;;;;;;4.80;4.13;;;;;;;;;;5072891;28;20483;-72
2021/12/31 00:17:43;;;;;;;7.00;3.53;;;;;;;;;;5073144;28;20467;-72
2021/12/31 00:20:14;;;;;;;5.53;4.07;;;;;;;;;;5073491;28;20508;-72
2021/12/31 00:25:29;;;;;;;6.00;4.30;;;;;;;;;;5072166;28;20552;-72
2021/12/31 00:27:56;;;;;;;4.27;3.73;;;;;;;;;;5073186;28;21016;-72
2021/12/31 00:30:25;;;;;;;4.93;3.13;;;;;;;;;;5073121;28;20471;-72
2021/12/31 00:32:52;;;;;;;5.10;3.47;;;;;;;;;;5073161;28;20455;-72
2021/12/31 00:35:19;;;;;;;3.77;2.97;;;;;;;;;;5072931;28;20468;-72
2021/12/31 00:37:47;;;;;;;6.23;2.90;;;;;;;;;;5072425;28;20459;-72
2021/12/31 00:40:15;;;;;;;2.93;2.40;;;;;;;;;;5073068;28;20463;-72
2021/12/31 00:42:43;;;;;;;3.20;2.67;;;;;;;;;;5072983;28;20463;-72
2021/12/31 00:45:11;;;;;;;3.83;2.80;;;;;;;;;;5072711;28;20483;-72
2021/12/31 00:47:40;;;;;;;3.23;2.40;;;;;;;;;;5072856;28;20483;-72
2021/12/31 00:50:07;;;;;;;2.90;2.10;;;;;;;;;;5072552;28;20841;-72
2021/12/31 00:52:35;;;;;;;3.13;2.20;;;;;;;;;;5072645;28;20470;-72
2021/12/31 00:55:02;;;;;;;3.00;1.93;;;;;;;;;;5072728;28;20482;-72
2021/12/31 00:57:29;;;;;;;3.07;2.40;;;;;;;;;;5072837;28;20468;-72
2021/12/31 00:59:56;;;;;;;3.30;3.00;;;;;;;;;;5072888;28;20451;-72
2021/12/31 01:02:26;;;;;;;3.30;2.10;;;;;;;;;;5072794;28;20458;-72
2021/12/31 01:04:55;;;;;;;3.00;2.40;;;;;;;;;;5072740;28;20883;-72
2021/12/31 01:07:22;;;;;;;5.20;1.93;;;;;;;;;;5072554;28;20487;-72
2021/12/31 01:09:49;;;;;;;3.10;1.90;;;;;;;;;;5072808;28;20444;-72
2021/12/31 01:12:16;;;;;;;8.30;2.33;;;;;;;;;;5072738;28;20451;-72
2021/12/31 01:14:53;;;;;;;2.43;1.87;;;;;;;;;;5072497;28;20467;-72
2021/12/31 01:17:36;;;;;;;2.40;2.07;;;;;;;;;;5072778;28;20535;-72
2021/12/31 01:20:05;;;;;;;3.83;2.00;;;;;;;;;;5072682;28;20459;-72
2021/12/31 01:22:33;;;;;;;2.67;1.97;;;;;;;;;;5072627;28;20454;-72
2021/12/31 01:25:00;;;;;;;2.40;1.80;;;;;;;;;;5072733;28;20566;-72
2021/12/31 01:27:28;;;;;;;2.00;1.50;;;;;;;;;;5072472;28;20488;-72
2021/12/31 01:29:55;;;;;;;2.43;1.70;;;;;;;;;;5072507;28;20467;-72
2021/12/31 01:32:22;;;;;;;1.80;1.60;;;;;;;;;;5072465;28;20451;-72
2021/12/31 01:34:49;;;;;;;1.97;1.77;;;;;;;;;;5072130;28;20475;-72
2021/12/31 01:37:18;;;;;;;2.00;1.50;;;;;;;;;;5072207;28;20447;-72
2021/12/31 01:39:45;;;;;;;2.13;1.43;;;;;;;;;;5072541;28;20850;-72
2021/12/31 01:42:14;;;;;;;2.73;1.40;;;;;;;;;;5072556;28;20443;-72
2021/12/31 01:44:44;;;;;;;5.07;1.63;;;;;;;;;;5071936;28;20472;-72
2021/12/31 01:47:15;;;;;;;2.03;1.60;;;;;;;;;;5072472;28;20582;-72
2021/12/31 01:49:54;;;;;;;2.43;1.67;;;;;;;;;;5072304;28;20526;-72
2021/12/31 01:52:23;;;;;;;2.40;1.80;;;;;;;;;;5072394;28;20459;-72
2021/12/31 01:54:50;;;;;;;2.00;1.40;;;;;;;;;;5072281;28;20837;-72
2021/12/31 01:57:18;;;;;;;2.20;1.50;;;;;;;;;;5072194;28;20456;-72
2021/12/31 01:59:46;;;;;;;2.37;1.70;;;;;;;;;;5072139;28;20451;-72
2021/12/31 02:02:13;;;;;;;2.10;1.80;;;;;;;;;;5074026;28;20825;-72
2021/12/31 02:04:41;;;;;;;3.20;1.90;;;;;;;;;;5075354;28;20475;-72
2021/12/31 02:07:09;;;;;;;2.00;1.70;;;;;;;;;;5075593;28;21026;-72
2021/12/31 02:09:45;;;;;;;2.27;1.73;;;;;;;;;;5075567;28;20929;-72
2021/12/31 02:12:12;;;;;;;2.00;1.43;;;;;;;;;;5075615;28;20977;-72
2021/12/31 02:14:39;;;;;;;2.10;1.30;;;;;;;;;;5075271;28;20472;-71
2021/12/31 02:17:09;;;;;;;2.53;1.40;;;;;;;;;;5075395;28;20456;-71
2021/12/31 02:19:36;;;;;;;2.30;1.70;;;;;;;;;;5075466;28;20514;-71
2021/12/31 02:22:05;;;;;;;3.10;1.60;;;;;;;;;;5075435;28;20515;-71
2021/12/31 02:24:35;;;;;;;2.50;1.57;;;;;;;;;;5075002;28;20486;-72
2021/12/31 02:27:02;;;;;;;2.27;1.50;;;;;;;;;;5075366;28;20488;-72
2021/12/31 02:29:29;;;;;;;2.63;1.90;;;;;;;;;;5075177;28;20469;-72
2021/12/31 02:31:56;;;;;;;6.63;2.03;;;;;;;;;;5075247;28;20459;-72
2021/12/31 02:34:23;;;;;;;2.63;1.60;;;;;;;;;;5074933;28;20452;-72
2021/12/31 02:36:51;;;;;;;1.90;1.60;;;;;;;;;;5074752;28;20455;-71
2021/12/31 02:39:20;;;;;;;2.10;1.70;;;;;;;;;;5075145;28;20807;-71
2021/12/31 02:41:47;;;;;;;3.00;1.90;;;;;;;;;;5075215;28;20566;-71
2021/12/31 02:44:14;;;;;;;1.97;1.40;;;;;;;;;;5074806;28;20447;-71
2021/12/31 02:46:41;;;;;;;2.13;1.67;;;;;;;;;;5074959;28;20488;-71
2021/12/31 02:49:08;;;;;;;2.00;1.80;;;;;;;;;;5075007;28;20807;-71
2021/12/31 02:51:36;;;;;;;1.83;1.43;;;;;;;;;;5074829;28;20457;-71
2021/12/31 02:54:07;;;;;;;2.37;2.00;;;;;;;;;;5074618;28;20467;-72
2021/12/31 02:56:35;;;;;;;1.90;1.63;;;;;;;;;;5074750;28;20448;-72
2021/12/31 02:59:03;;;;;;;4.03;1.90;;;;;;;;;;5074733;28;20456;-72
2021/12/31 03:01:30;;;;;;;2.47;1.80;;;;;;;;;;5074726;28;20805;-72
2021/12/31 03:03:58;;;;;;;3.60;2.27;;;;;;;;;;5074307;28;20458;-72
2021/12/31 03:06:25;;;;;;;2.67;1.50;;;;;;;;;;5074450;28;20499;-72
2021/12/31 03:08:53;;;;;;;2.93;2.00;;;;;;;;;;5074542;28;20464;-72
2021/12/31 03:11:21;;;;;;;4.50;1.93;;;;;;;;;;5074607;28;20962;-72
2021/12/31 03:13:52;;;;;;;3.80;2.13;;;;;;;;;;5074027;28;20798;-72
2021/12/31 03:16:20;;;;;;;3.20;2.07;;;;;;;;;;5074510;28;20480;-72
2021/12/31 03:18:47;;;;;;;1.80;1.40;;;;;;;;;;5074423;28;20462;-72
2021/12/31 03:21:21;;;;;;;2.87;1.90;;;;;;;;;;5074483;28;20940;-72
2021/12/31 03:23:48;;;;;;;3.07;2.30;;;;;;;;;;5074215;28;20971;-71
2021/12/31 03:26:15;;;;;;;2.40;2.10;;;;;;;;;;5074119;28;20517;-72
2021/12/31 03:28:43;;;;;;;3.67;1.60;;;;;;;;;;5074102;28;20470;-72
2021/12/31 03:31:11;;;;;;;5.93;1.90;;;;;;;;;;5074137;28;20456;-72
2021/12/31 03:33:38;;;;;;;2.20;1.97;;;;;;;;;;5073857;28;20455;-71
2021/12/31 03:36:05;;;;;;;2.23;1.63;;;;;;;;;;5074048;28;20471;-72
2021/12/31 03:38:33;;;;;;;4.30;2.10;;;;;;;;;;5073731;28;20809;-71
2021/12/31 03:41:00;;;;;;;3.00;2.50;;;;;;;;;;5073956;28;20458;-71
2021/12/31 03:43:27;;;;;;;5.30;2.80;;;;;;;;;;5073646;28;20522;-71
2021/12/31 03:45:54;;;;;;;3.43;2.30;;;;;;;;;;5073681;28;20471;-72
2021/12/31 03:48:23;;;;;;;5.00;2.30;;;;;;;;;;5073698;28;20491;-72
2021/12/31 03:50:50;;;;;;;1.83;1.63;;;;;;;;;;5073746;28;20452;-72
2021/12/31 03:53:17;;;;;;;4.10;2.30;;;;;;;;;;5073342;28;20463;-71
2021/12/31 03:55:45;;;;;;;4.80;2.60;;;;;;;;;;5073425;28;20486;-71
2021/12/31 03:58:12;;;;;;;5.13;3.43;;;;;;;;;;5073582;28;20459;-71
2021/12/31 04:00:39;;;;;;;2.60;2.33;;;;;;;;;;5073571;28;20451;-71
2021/12/31 04:03:07;;;;;;;2.27;2.07;;;;;;;;;;5073532;28;20450;-71
2021/12/31 04:05:36;;;;;;;4.43;1.70;;;;;;;;;;5073188;28;20896;-72
2021/12/31 04:08:04;;;;;;;3.17;2.03;;;;;;;;;;5073464;28;20487;-71
2021/12/31 04:10:31;;;;;;;2.63;2.00;;;;;;;;;;5073305;28;20463;-71
2021/12/31 04:12:59;;;;;;;2.03;1.83;;;;;;;;;;5073393;28;20454;-71
2021/12/31 04:15:26;;;;;;;2.97;2.20;;;;;;;;;;5073003;28;20495;-71
2021/12/31 04:17:54;;;;;;;3.50;3.10;;;;;;;;;;5073285;28;20456;-71
2021/12/31 04:20:33;;;;;;;4.10;3.37;;;;;;;;;;5073269;28;20459;-71
2021/12/31 04:23:03;;;;;;;3.10;2.30;;;;;;;;;;5073456;28;20444;-72
2021/12/31 04:25:31;;;;;;;4.30;2.90;;;;;;;;;;5072258;28;20880;-72
2021/12/31 04:27:58;;;;;;;4.23;3.37;;;;;;;;;;5073277;28;20856;-72
2021/12/31 04:30:25;;;;;;;3.70;2.77;;;;;;;;;;5073014;28;20465;-72
2021/12/31 04:32:52;;;;;;;2.90;2.20;;;;;;;;;;5073111;28;20952;-72
2021/12/31 04:35:19;;;;;;;4.47;3.00;;;;;;;;;;5072847;28;20555;-72
2021/12/31 04:37:46;;;;;;;6.50;3.83;;;;;;;;;;5072677;28;20822;-72
2021/12/31 04:40:15;;;;;;;4.57;2.40;;;;;;;;;;5073279;28;20440;-72
2021/12/31 04:42:43;;;;;;;5.23;2.60;;;;;;;;;;5072970;28;20951;-72
2021/12/31 04:45:10;;;;;;;3.43;2.43;;;;;;;;;;5073000;28;20482;-72
2021/12/31 04:47:37;;;;;;;3.13;2.47;;;;;;;;;;5072843;28;20487;-72
2021/12/31 04:50:05;;;;;;;2.60;1.80;;;;;;;;;;5073065;28;20444;-71
2021/12/31 04:52:32;;;;;;;2.33;1.80;;;;;;;;;;5072801;28;20822;-71
2021/12/31 04:54:59;;;;;;;2.00;1.80;;;;;;;;;;5072669;28;21003;-71
2021/12/31 04:57:28;;;;;;;2.57;1.73;;;;;;;;;;5072784;28;20952;-71
2021/12/31 04:59:55;;;;;;;3.20;1.83;;;;;;;;;;5072904;28;20447;-71
2021/12/31 05:02:22;;;;;;;2.50;2.17;;;;;;;;;;5072913;28;20451;-71
2021/12/31 05:04:49;;;;;;;2.53;1.93;;;;;;;;;;5072411;28;20484;-71
2021/12/31 05:07:16;;;;;;;4.43;2.00;;;;;;;;;;5072717;28;20983;-71
2021/12/31 05:09:43;;;;;;;2.30;2.10;;;;;;;;;;5072788;28;20455;-71
2021/12/31 05:12:15;;;;;;;2.20;1.83;;;;;;;;;;5072732;28;20466;-71
2021/12/31 05:14:45;;;;;;;2.20;2.00;;;;;;;;;;5072418;28;20483;-71
2021/12/31 05:17:12;;;;;;;2.50;2.20;;;;;;;;;;5072653;28;20491;-71
2021/12/31 05:19:43;;;;;;;2.67;1.93;;;;;;;;;;5072609;28;20463;-71
2021/12/31 05:22:10;;;;;;;3.10;2.40;;;;;;;;;;5072772;28;20949;-71
2021/12/31 05:24:37;;;;;;;4.13;3.13;;;;;;;;;;5072337;28;20479;-71
2021/12/31 05:27:05;;;;;;;3.83;2.40;;;;;;;;;;5072528;28;20482;-71
2021/12/31 05:29:32;;;;;;;3.53;2.77;;;;;;;;;;5072254;28;20470;-71
2021/12/31 05:32:00;;;;;;;3.53;2.93;;;;;;;;;;5072495;28;20832;-71
2021/12/31 05:34:27;;;;;;;3.43;2.67;;;;;;;;;;5072197;28;20479;-71
2021/12/31 05:36:54;;;;;;;3.43;2.67;;;;;;;;;;5075075;28;20443;-71
2021/12/31 05:39:22;;;;;;;3.63;2.70;;;;;;;;;;5076258;28;20444;-71
2021/12/31 05:41:49;;;;;;;2.70;2.50;;;;;;;;;;5076345;28;20544;-71
2021/12/31 05:44:16;;;;;;;4.57;3.10;;;;;;;;;;5075845;28;20971;-71
2021/12/31 05:46:47;;;;;;;4.83;2.50;;;;;;;;;;5075977;28;20452;-71
2021/12/31 05:49:16;;;;;;;4.20;3.07;;;;;;;;;;5076134;28;20947;-72
2021/12/31 05:51:43;;;;;;;3.67;2.57;;;;;;;;;;5076033;28;20448;-72
2021/12/31 05:54:10;;;;;;;4.53;2.90;;;;;;;;;;5075710;28;20829;-71
2021/12/31 05:56:37;;;;;;;4.80;3.43;;;;;;;;;;5075800;28;20454;-71
2021/12/31 05:59:04;;;;;;;9.30;2.80;;;;;;;;;;5075984;28;20451;-71
2021/12/31 06:01:31;;;;;;;4.30;3.20;;;;;;;;;;5075760;28;20451;-71
2021/12/31 06:03:58;;;;;;;4.67;2.40;;;;;;;;;;5075632;28;20961;-71
2021/12/31 06:06:27;;;;;;;2.63;2.33;;;;;;;;;;5075650;28;20486;-71
2021/12/31 06:08:54;;;;;;;2.40;2.20;;;;;;;;;;5075861;28;20494;-71
2021/12/31 06:11:21;;;;;;;3.27;2.70;;;;;;;;;;5075811;28;20451;-71
2021/12/31 06:13:54;;;;;;;5.20;4.00;;;;;;;;;;5075483;28;20459;-71
2021/12/31 06:16:21;;;;;;;15.50;9.80;;;;;;;;;;5075448;28;20525;-71
2021/12/31 06:18:48;;;;;;;7.47;5.60;;;;;;;;;;5075574;28;20451;-71
2021/12/31 06:21:15;;;;;;;4.10;3.60;;;;;;;;;;5075515;28;20483;-71
2021/12/31 06:23:44;;;;;;;3.20;2.90;;;;;;;;;;5075106;28;20461;-71
2021/12/31 06:26:11;;;;;;;4.00;2.50;;;;;;;;;;5075366;28;20471;-71
2021/12/31 06:28:38;;;;;;;3.20;2.30;;;;;;;;;;5075164;28;20552;-71
2021/12/31 06:31:05;;;;;;;3.00;2.70;;;;;;;;;;5075512;28;20447;-71
2021/12/31 06:33:34;;;;;;;3.10;2.60;;;;;;;;;;5075134;28;20444;-71
2021/12/31 06:36:04;;;;;;;4.37;3.20;;;;;;;;;;5075200;28;20995;-71
2021/12/31 06:38:31;;;;;;;4.30;2.87;;;;;;;;;;5074667;28;20956;-71
2021/12/31 06:41:00;;;;;;;4.83;3.40;;;;;;;;;;5075118;28;20460;-71
2021/12/31 06:43:27;;;;;;;6.63;3.00;;;;;;;;;;5074965;28;20455;-71
2021/12/31 06:45:54;;;;;;;4.40;3.97;;;;;;;;;;5075064;28;20476;-71
2021/12/31 06:48:21;;;;;;;7.00;5.60;;;;;;;;;;5074270;28;21008;-71
2021/12/31 06:50:48;;;;;;;3.90;3.43;;;;;;;;;;5075018;28;20456;-71
2021/12/31 06:53:15;;;;;;;3.53;2.90;;;;;;;;;;5075005;28;20949;-71
2021/12/31 06:55:43;;;;;;;4.00;3.13;;;;;;;;;;5074497;28;20472;-71
2021/12/31 06:58:11;;;;;;;3.57;3.17;;;;;;;;;;5074803;28;20454;-71
2021/12/31 07:00:38;;;;;;;3.10;2.80;;;;;;;;;;5074641;28;20455;-71
2021/12/31 07:03:06;;;;;;;4.33;3.30;;;;;;;;;;5074577;28;20451;-71
2021/12/31 07:05:33;;;;;;;3.33;2.90;;;;;;;;;;5074185;28;20474;-71
2021/12/31 07:08:01;;;;;;;18.80;4.47;;;;;;;;;;5074656;28;20493;-71
2021/12/31 07:10:28;;;;;;;3.33;3.03;;;;;;;;;;5074538;28;20452;-71
2021/12/31 07:12:59;;;;;;;4.00;3.30;;;;;;;;;;5074586;28;20956;-71
2021/12/31 07:15:27;;;;;;;5.07;2.70;;;;;;;;;;5074310;28;20999;-71
2021/12/31 07:17:54;;;;;;;4.40;3.97;;;;;;;;;;5074549;28;20440;-71
2021/12/31 07:20:22;;;;;;;5.57;3.23;;;;;;;;;;5074415;28;20933;-71
2021/12/31 07:22:49;;;;;;;4.23;3.20;;;;;;;;;;5074335;28;20448;-71
2021/12/31 07:25:16;;;;;;;7.93;3.03;;;;;;;;;;5074000;28;20474;-71
2021/12/31 07:27:43;;;;;;;5.07;3.67;;;;;;;;;;5074196;28;20984;-71
2021/12/31 07:30:12;;;;;;;6.30;4.07;;;;;;;;;;5073938;28;20479;-71
2021/12/31 07:32:40;;;;;;;7.47;4.70;;;;;;;;;;5073979;28;20471;-71
2021/12/31 07:35:08;;;;;;;5.43;4.50;;;;;;;;;;5073648;28;20483;-71
2021/12/31 07:37:37;;;;;;;8.07;5.03;;;;;;;;;;5073460;28;20822;-71
2021/12/31 07:40:05;;;;;;;5.20;3.80;;;;;;;;;;5074107;28;20825;-71
2021/12/31 07:42:32;;;;;;;5.20;4.20;;;;;;;;;;5073907;28;20456;-71
2021/12/31 07:44:59;;;;;;;4.33;3.93;;;;;;;;;;5073781;28;20983;-71
2021/12/31 07:47:26;;;;;;;5.20;3.30;;;;;;;;;;5073633;28;20455;-71
2021/12/31 07:49:55;;;;;;;4.40;3.37;;;;;;;;;;5073829;28;20474;-71
2021/12/31 07:52:22;;;;;;;3.70;3.17;;;;;;;;;;5073748;28;20458;-71
2021/12/31 07:54:49;;;;;;;4.33;3.20;;;;;;;;;;5073358;28;20468;-71
2021/12/31 07:57:16;;;;;;;4.30;3.87;;;;;;;;;;5073543;28;20955;-71
2021/12/31 07:59:43;;;;;;;6.67;3.87;;;;;;;;;;5072579;28;20455;-71
2021/12/31 08:02:10;;;;;;;3.90;3.23;;;;;;;;;;5073374;28;20452;-71
2021/12/31 08:04:37;;;;;;;3.43;3.13;;;;;;;;;;5073371;28;20482;-71
2021/12/31 08:07:06;;;;;;;4.67;3.23;;;;;;;;;;5071254;28;20479;-71
2021/12/31 08:09:33;;;;;;;4.17;3.53;;;;;;;;;;5071119;28;20510;-71
2021/12/31 08:12:00;;;;;;;4.83;3.20;;;;;;;;;;5072032;28;20451;-71
2021/12/31 08:14:27;;;;;;;3.97;3.13;;;;;;;;;;5071232;28;21038;-71
2021/12/31 08:16:54;;;;;;;3.93;3.47;;;;;;;;;;5059112;28;20476;-71
2021/12/31 08:19:21;;;;;;;4.40;3.80;;;;;;;;;;5051991;28;20828;-71
2021/12/31 08:21:49;;;;;;;5.40;3.73;;;;;;;;;;5051571;28;20460;-71
2021/12/31 08:24:17;;;;;;;3.40;3.10;;;;;;;;;;5051615;28;20449;-71
2021/12/31 08:26:44;;;;;;;4.53;3.40;;;;;;;;;;5051768;28;20452;-71
2021/12/31 08:29:12;;;;;;;7.03;4.63;;;;;;;;;;5051539;28;20499;-71
2021/12/31 08:31:40;;;;;;;4.80;3.30;;;;;;;;;;5051933;28;20497;-71
2021/12/31 08:34:08;;;;;;;4.23;3.57;;;;;;;;;;5051692;28;20456;-71
2021/12/31 08:36:35;;;;;;;6.30;3.80;;;;;;;;;;5051038;28;20507;-71
2021/12/31 08:39:04;;;;;;;5.30;3.73;;;;;;;;;;5051952;28;20448;-72
2021/12/31 08:41:33;;;;;;;3.90;2.90;;;;;;;;;;5051442;28;20492;-73
2021/12/31 08:44:00;;;;;;;7.97;5.00;;;;;;;;;;5051177;28;20452;-72
2021/12/31 08:46:27;;;;;;;14.40;9.70;;;;;;;;;;5051499;28;20559;-72
2021/12/31 08:48:54;;;;;;;17.27;11.57;;;;;;;;;;5051628;28;20492;-72
2021/12/31 08:51:21;;;;;;;10.63;6.17;;;;;;;;;;5051277;28;20831;-72
2021/12/31 08:53:48;;;;;;;18.93;9.63;;;;;;;;;;5063423;28;20524;-71
2021/12/31 08:56:15;;;;;;;5.93;5.30;;;;;;;;;;5072670;28;20471;-71
2021/12/31 08:58:44;;;;;;;2.70;2.50;;;;;;;;;;5072620;28;20937;-71
2021/12/31 09:01:11;;;;;;;4.47;4.07;;;;;;;;;;5072819;28;20467;-71
2021/12/31 09:03:38;;;;;;;3.23;2.73;;;;;;;;;;5072552;28;20455;-71
2021/12/31 09:06:05;;;;;;;5.43;4.03;;;;;;;;;;5072754;28;20845;-71
2021/12/31 09:08:32;;;;;;;3.97;3.03;;;;;;;;;;5072255;28;20484;-71
2021/12/31 09:10:59;;;;;;;3.00;1.97;;;;;;;;;;5074099;28;20953;-71
2021/12/31 09:13:28;;;;;;;3.37;2.47;;;;;;;;;;5076459;28;20460;-71
2021/12/31 09:15:56;;;;;;;2.77;1.90;;;;;;;;;;5076632;28;20467;-71
2021/12/31 09:18:23;;;;;;;3.00;2.20;;;;;;;;;;5076665;28;20456;-71
2021/12/31 09:20:52;;;;;;;3.23;2.00;;;;;;;;;;5076652;28;20452;-72
2021/12/31 09:23:19;;;;;;;2.30;2.10;;;;;;;;;;5076242;28;20494;-71
2021/12/31 09:25:46;;;;;;;4.40;2.50;;;;;;;;;;5075738;28;20987;-71
2021/12/31 09:28:13;;;;;;;2.40;1.80;;;;;;;;;;5076482;28;20455;-71
2021/12/31 09:30:40;;;;;;;2.50;2.30;;;;;;;;;;5076468;28;20459;-71
2021/12/31 09:33:09;;;;;;;2.67;2.47;;;;;;;;;;5076510;28;20792;-71
2021/12/31 09:35:36;;;;;;;2.43;1.93;;;;;;;;;;5076003;28;20467;-71
2021/12/31 09:38:08;;;;;;;3.43;2.17;;;;;;;;;;5075718;28;20452;-72
2021/12/31 09:40:35;;;;;;;2.00;1.80;;;;;;;;;;5076336;28;20451;-72
2021/12/31 09:43:04;;;;;;;2.40;2.07;;;;;;;;;;5076258;28;20448;-72
2021/12/31 09:45:33;;;;;;;2.10;1.60;;;;;;;;;;5075760;28;20472;-71
2021/12/31 09:48:00;;;;;;;3.20;1.97;;;;;;;;;;5076094;28;20455;-71
2021/12/31 09:50:29;;;;;;;2.90;1.90;;;;;;;;;;5075860;28;20498;-72
2021/12/31 09:52:56;;;;;;;1.87;1.57;;;;;;;;;;5076188;28;20448;-71
2021/12/31 09:55:41;;;;;;;2.30;1.87;;;;;;;;;;5075586;28;20481;-71
2021/12/31 09:58:09;;;;;;;2.63;2.10;;;;;;;;;;5076018;28;20819;-71
2021/12/31 10:00:37;;;;;;;2.60;2.30;;;;;;;;;;5075774;28;20447;-71
2021/12/31 10:03:15;;;;;;;2.17;1.70;;;;;;;;;;5075816;28;20478;-71
2021/12/31 10:05:45;;;;;;;2.60;1.80;;;;;;;;;;5075810;28;20554;-71
2021/12/31 10:08:15;;;;;;;2.90;1.70;;;;;;;;;;5075761;28;20444;-71
2021/12/31 10:10:43;;;;;;;2.50;2.30;;;;;;;;;;5075817;28;20443;-72
2021/12/31 10:13:10;;;;;;;2.30;2.10;;;;;;;;;;5075823;28;20456;-71
2021/12/31 10:15:40;;;;;;;1.90;1.50;;;;;;;;;;5075451;28;20483;-71
2021/12/31 10:18:12;;;;;;;2.27;1.90;;;;;;;;;;5075625;28;20448;-71
2021/12/31 10:20:51;;;;;;;1.90;1.70;;;;;;;;;;5075824;28;20519;-72
2021/12/31 10:23:19;;;;;;;2.00;1.60;;;;;;;;;;5074447;28;20448;-72
2021/12/31 10:25:46;;;;;;;2.70;2.10;;;;;;;;;;5075101;28;20503;-71
2021/12/31 10:28:14;;;;;;;1.90;1.70;;;;;;;;;;5075348;28;20444;-74
2021/12/31 10:30:41;;;;;;;2.23;2.00;;;;;;;;;;5075414;28;20448;-74
2021/12/31 10:33:09;;;;;;;2.10;1.80;;;;;;;;;;5075331;28;20575;-74
2021/12/31 10:35:39;;;;;;;1.60;1.47;;;;;;;;;;5074926;28;20476;-73
2021/12/31 10:38:11;;;;;;;1.90;1.60;;;;;;;;;;5074843;28;20925;-73
2021/12/31 10:40:40;;;;;;;1.97;1.60;;;;;;;;;;5075101;28;20956;-74
2021/12/31 10:43:07;;;;;;;3.40;1.30;;;;;;;;;;5075379;28;20555;-73
2021/12/31 10:45:34;;;;;;;1.97;1.50;;;;;;;;;;5074771;28;20471;-72
2021/12/31 10:48:06;;;;;;;2.33;1.70;;;;;;;;;;5075028;28;20486;-72
2021/12/31 10:50:33;;;;;;;2.73;1.67;;;;;;;;;;5074857;28;20482;-72
2021/12/31 10:53:03;;;;;;;1.63;1.30;;;;;;;;;;5075079;28;20450;-72
2021/12/31 10:55:34;;;;;;;2.13;1.60;;;;;;;;;;5074578;28;20478;-72
2021/12/31 10:58:03;;;;;;;2.20;1.43;;;;;;;;;;5074957;28;20477;-72
2021/12/31 11:00:33;;;;;;;2.00;1.50;;;;;;;;;;5074947;28;20933;-73
2021/12/31 11:03:01;;;;;;;1.80;1.50;;;;;;;;;;5074778;28;20455;-73
2021/12/31 11:05:28;;;;;;;1.80;1.53;;;;;;;;;;5074288;28;20488;-72
2021/12/31 11:07:56;;;;;;;2.50;1.80;;;;;;;;;;5074812;28;20451;-72
2021/12/31 11:10:26;;;;;;;2.00;1.80;;;;;;;;;;5074612;28;20519;-74
2021/12/31 11:12:55;;;;;;;2.70;1.53;;;;;;;;;;5074642;28;20447;-72
2021/12/31 11:15:22;;;;;;;2.57;1.80;;;;;;;;;;5074205;28;20479;-72
2021/12/31 11:17:52;;;;;;;1.97;1.57;;;;;;;;;;5074510;28;20526;-72
2021/12/31 11:20:21;;;;;;;3.17;2.67;;;;;;;;;;5074544;28;20452;-72
2021/12/31 11:22:48;;;;;;;3.00;1.57;;;;;;;;;;5074401;28;20452;-72
2021/12/31 11:25:26;;;;;;;3.07;1.40;;;;;;;;;;5074072;28;20487;-72
2021/12/31 11:27:55;;;;;;;2.00;1.80;;;;;;;;;;5074482;28;20451;-72
2021/12/31 11:30:26;;;;;;;1.90;1.70;;;;;;;;;;5074012;28;20491;-72
2021/12/31 11:32:54;;;;;;;2.17;1.70;;;;;;;;;;5074199;28;20456;-72
2021/12/31 11:35:28;;;;;;;1.70;1.40;;;;;;;;;;5073619;28;20471;-72
2021/12/31 11:37:56;;;;;;;2.00;1.50;;;;;;;;;;5073528;28;20452;-72
2021/12/31 11:40:28;;;;;;;3.13;2.83;;;;;;;;;;5073709;28;20509;-72
2021/12/31 11:43:14;;;;;;;9.73;2.67;;;;;;;;;;5073900;28;20455;-73
2021/12/31 11:45:42;;;;;;;2.33;1.63;;;;;;;;;;5073577;28;20467;-74
2021/12/31 11:48:28;;;;;;;2.00;1.63;;;;;;;;;;5074024;28;20476;-73
2021/12/31 11:51:05;;;;;;;2.33;1.90;;;;;;;;;;5073630;28;20495;-74
2021/12/31 11:53:32;;;;;;;2.13;1.87;;;;;;;;;;5073628;28;20451;-72
2021/12/31 11:55:59;;;;;;;3.43;1.60;;;;;;;;;;5073747;28;20828;-72
2021/12/31 11:58:40;;;;;;;2.80;1.73;;;;;;;;;;5073683;28;20457;-72
2021/12/31 12:01:40;;;;;;;2.03;1.50;;;;;;;;;;5073881;28;20455;-72
2021/12/31 12:04:20;;;;;;;1.70;1.50;;;;;;;;;;5031405;28;20454;-73
2021/12/31 12:06:53;;;;;;;2.10;1.77;;;;;;;;;;5031574;28;20465;-72
2021/12/31 12:09:21;;;;;;;3.03;1.83;;;;;;;;;;5047981;28;20575;-73
2021/12/31 12:12:00;;;;;;;2.00;1.80;;;;;;;;;;5071274;28;20454;-73
2021/12/31 12:14:31;;;;;;;2.00;1.70;;;;;;;;;;5071597;28;20483;-72
2021/12/31 12:16:59;;;;;;;2.87;1.73;;;;;;;;;;5071912;28;20464;-72
2021/12/31 12:19:41;;;;;;;2.20;1.60;;;;;;;;;;5071698;28;20459;-72
2021/12/31 12:22:09;;;;;;;2.60;1.73;;;;;;;;;;5071912;28;20447;-72
2021/12/31 12:24:37;;;;;;;2.20;1.80;;;;;;;;;;5071428;28;20842;-72
2021/12/31 12:27:04;;;;;;;2.90;1.70;;;;;;;;;;5071928;28;20467;-72
2021/12/31 12:29:31;;;;;;;2.20;1.80;;;;;;;;;;5071869;28;20835;-72
2021/12/31 12:32:08;;;;;;;2.50;1.97;;;;;;;;;;5071791;28;20455;-72
2021/12/31 12:34:35;;;;;;;2.20;1.90;;;;;;;;;;5071161;28;21037;-72
2021/12/31 12:37:02;;;;;;;1.97;1.53;;;;;;;;;;5071234;28;20904;-72
2021/12/31 12:39:31;;;;;;;2.30;1.70;;;;;;;;;;5071562;28;20448;-72
2021/12/31 12:41:58;;;;;;;2.73;2.03;;;;;;;;;;5071508;28;20459;-73
2021/12/31 12:44:25;;;;;;;2.43;2.23;;;;;;;;;;5071608;28;20871;-72
2021/12/31 12:46:54;;;;;;;2.33;1.83;;;;;;;;;;5072450;28;20459;-72
2021/12/31 12:49:23;;;;;;;3.27;1.90;;;;;;;;;;5072775;28;20905;-72
2021/12/31 12:51:51;;;;;;;2.40;2.00;;;;;;;;;;5072495;28;20455;-73
2021/12/31 12:54:22;;;;;;;2.97;1.73;;;;;;;;;;5072738;28;20454;-72
2021/12/31 12:56:51;;;;;;;3.70;2.07;;;;;;;;;;5072830;28;20459;-72
2021/12/31 12:59:20;;;;;;;2.30;1.70;;;;;;;;;;5072966;28;20972;-72
2021/12/31 13:01:48;;;;;;;3.13;2.03;;;;;;;;;;5072767;28;20459;-72
2021/12/31 13:04:16;;;;;;;2.47;2.10;;;;;;;;;;5072624;28;20459;-72
2021/12/31 13:06:44;;;;;;;2.00;1.50;;;;;;;;;;5072999;28;20444;-72
2021/12/31 13:09:13;;;;;;;2.00;1.80;;;;;;;;;;5072648;28;20448;-72
2021/12/31 13:11:41;;;;;;;4.03;2.47;;;;;;;;;;5072556;28;20456;-72
2021/12/31 13:14:14;;;;;;;2.70;2.40;;;;;;;;;;5072550;28;20452;-72
2021/12/31 13:16:41;;;;;;;3.47;2.03;;;;;;;;;;5072807;28;20847;-72
2021/12/31 13:19:09;;;;;;;2.80;2.03;;;;;;;;;;5072912;28;20455;-72
2021/12/31 13:21:36;;;;;;;2.87;2.33;;;;;;;;;;5072935;28;20952;-73
2021/12/31 13:24:04;;;;;;;2.70;1.90;;;;;;;;;;5072521;28;20451;-72
2021/12/31 13:26:33;;;;;;;2.67;1.60;;;;;;;;;;5072736;28;20855;-72
2021/12/31 13:29:01;;;;;;;2.00;1.50;;;;;;;;;;5072721;28;20558;-72
2021/12/31 13:31:34;;;;;;;3.97;1.87;;;;;;;;;;5072533;28;20864;-72
2021/12/31 13:34:11;;;;;;;3.10;2.20;;;;;;;;;;5072548;28;20455;-72
2021/12/31 13:36:45;;;;;;;3.50;1.60;;;;;;;;;;5072321;28;20910;-72
2021/12/31 13:39:13;;;;;;;2.43;1.47;;;;;;;;;;5072609;28;20969;-72
2021/12/31 13:41:51;;;;;;;2.40;1.80;;;;;;;;;;5072605;28;20801;-72
2021/12/31 13:44:20;;;;;;;2.83;2.00;;;;;;;;;;5072284;28;20455;-72
2021/12/31 13:46:49;;;;;;;2.90;2.27;;;;;;;;;;5072499;28;20818;-72
2021/12/31 13:49:20;;;;;;;2.10;1.77;;;;;;;;;;5072445;28;20458;-73
2021/12/31 13:51:47;;;;;;;2.47;1.60;;;;;;;;;;5072203;28;20824;-72
2021/12/31 13:54:16;;;;;;;1.93;1.40;;;;;;;;;;5072257;28;20456;-72
2021/12/31 13:56:45;;;;;;;3.60;1.73;;;;;;;;;;5073409;28;20847;-74
2021/12/31 13:59:19;;;;;;;3.20;1.83;;;;;;;;;;5076071;28;20539;-73
2021/12/31 14:02:07;;;;;;;4.50;2.90;;;;;;;;;;5075942;28;20793;-70
2021/12/31 14:04:35;;;;;;;3.30;3.00;;;;;;;;;;5075524;28;20467;-72
2021/12/31 14:07:20;;;;;;;2.90;2.13;;;;;;;;;;5075887;28;20443;-72
2021/12/31 14:09:48;;;;;;;2.20;1.70;;;;;;;;;;5075968;28;20486;-70
2021/12/31 14:12:15;;;;;;;2.07;1.70;;;;;;;;;;5075878;28;20990;-70
2021/12/31 14:14:42;;;;;;;3.20;2.60;;;;;;;;;;5075329;28;20478;-71
2021/12/31 14:17:11;;;;;;;3.40;1.80;;;;;;;;;;5075574;28;20456;-70
2021/12/31 14:19:39;;;;;;;2.30;1.70;;;;;;;;;;5075542;28;20546;-70
2021/12/31 14:22:07;;;;;;;7.17;3.17;;;;;;;;;;5075584;28;20455;-70
2021/12/31 14:24:34;;;;;;;4.63;2.73;;;;;;;;;;5075196;28;20490;-72
2021/12/31 14:27:02;;;;;;;2.27;2.07;;;;;;;;;;5075481;28;20463;-72
2021/12/31 14:29:30;;;;;;;5.03;3.03;;;;;;;;;;5075435;28;20463;-72
2021/12/31 14:31:57;;;;;;;6.50;4.60;;;;;;;;;;5075365;28;20455;-72
2021/12/31 14:34:27;;;;;;;9.30;6.10;;;;;;;;;;5075089;28;20478;-73
2021/12/31 14:36:59;;;;;;;10.90;7.10;;;;;;;;;;5074885;28;20499;-70
2021/12/31 14:39:26;;;;;;;8.10;6.30;;;;;;;;;;5075266;28;20456;-70
2021/12/31 14:41:54;;;;;;;3.63;2.87;;;;;;;;;;5075166;28;20459;-70
2021/12/31 14:44:22;;;;;;;3.80;2.33;;;;;;;;;;5074843;28;20462;-70
2021/12/31 14:46:51;;;;;;;3.27;2.97;;;;;;;;;;5075406;28;20812;-70
2021/12/31 14:49:18;;;;;;;4.63;3.10;;;;;;;;;;5075187;28;20864;-72
2021/12/31 14:51:47;;;;;;;2.87;2.27;;;;;;;;;;5075080;28;21019;-72
2021/12/31 14:54:14;;;;;;;2.57;1.73;;;;;;;;;;5074711;28;20462;-72